Time;durP1;ratioP1;P1;durP2;ratioP2;P2;SDS_P1;SDS_P2;PMS_P1;PMS_P2;Temp;Humidity;BMP_temperature;BMP_pressure;BME280_temperature;BME280_humidity;BME280_pressure;Samples;Min_cycle;Max_cycle;Signal;HPM_P1;HPM_P2
2022/01/30 00:00:53;;;;;;;15.15;2.63;;;5.00;99.90;;;;;;4896033;29;20393;-65
2022/01/30 00:03:21;;;;;;;26.00;2.67;;;4.90;99.90;;;;;;4912626;29;20048;-62
2022/01/30 00:05:49;;;;;;;13.60;2.80;;;4.90;99.90;;;;;;4911837;29;20048;-60
2022/01/30 00:08:17;;;;;;;26.88;3.47;;;4.90;99.90;;;;;;4912662;29;20040;-64
2022/01/30 00:10:51;;;;;;;30.48;3.80;;;4.90;99.90;;;;;;4912326;29;20044;-64
2022/01/30 00:13:20;;;;;;;26.40;3.05;;;4.90;99.90;;;;;;4899075;29;20049;-63
2022/01/30 00:15:52;;;;;;;18.77;2.85;;;4.90;99.90;;;;;;4893754;29;20048;-65
2022/01/30 00:21:15;;;;;;;16.25;2.50;;;5.00;99.90;;;;;;4896988;29;20407;-61
2022/01/30 00:23:52;;;;;;;32.28;2.88;;;5.00;99.90;;;;;;4902429;29;20064;-60
2022/01/30 00:26:27;;;;;;;20.55;4.03;;;5.00;99.90;;;;;;4893456;29;20049;-60
2022/01/30 00:28:56;;;;;;;22.73;3.22;;;5.00;99.90;;;;;;4893613;29;20057;-60
2022/01/30 00:31:25;;;;;;;19.90;2.90;;;5.00;99.90;;;;;;4897500;29;20051;-58
2022/01/30 00:34:13;;;;;;;32.38;3.20;;;5.00;99.90;;;;;;4899402;29;20045;-59
2022/01/30 00:36:41;;;;;;;21.13;2.70;;;4.90;99.90;;;;;;4892492;29;20513;-59
2022/01/30 00:39:09;;;;;;;16.60;3.20;;;4.90;99.90;;;;;;4903286;29;20055;-60
2022/01/30 00:41:36;;;;;;;19.40;2.22;;;4.90;99.90;;;;;;4891941;29;20048;-61
2022/01/30 00:44:05;;;;;;;27.98;3.30;;;4.80;99.90;;;;;;4893547;29;20063;-60
2022/01/30 00:46:33;;;;;;;23.00;3.15;;;4.80;99.90;;;;;;4892326;29;20499;-58
2022/01/30 00:49:01;;;;;;;20.52;2.55;;;4.80;99.90;;;;;;4893026;29;20048;-59
2022/01/30 00:51:28;;;;;;;20.08;2.92;;;4.70;99.90;;;;;;4897165;29;20044;-61
2022/01/30 00:53:56;;;;;;;25.05;2.88;;;4.70;99.90;;;;;;4909149;29;20048;-60
2022/01/30 00:56:24;;;;;;;23.80;2.88;;;4.70;99.90;;;;;;4911051;29;20044;-61
2022/01/30 00:58:52;;;;;;;15.07;2.55;;;4.60;99.90;;;;;;4897966;29;20053;-62
2022/01/30 01:01:20;;;;;;;31.38;3.45;;;4.60;99.90;;;;;;4894897;29;20067;-64
2022/01/30 01:03:49;;;;;;;20.80;2.97;;;4.60;99.90;;;;;;4899557;29;20518;-62
2022/01/30 01:06:17;;;;;;;16.75;2.75;;;4.50;99.90;;;;;;4888994;29;20056;-65
2022/01/30 01:08:51;;;;;;;28.13;3.65;;;4.50;99.90;;;;;;4893159;29;20069;-64
2022/01/30 01:24:56;;;;;;;15.73;3.17;;;4.30;99.90;;;;;;4893364;29;20056;-62
2022/01/30 01:27:24;;;;;;;20.15;2.95;;;4.20;99.90;;;;;;4875907;29;20044;-65
2022/01/30 01:29:52;;;;;;;18.20;3.70;;;4.20;99.90;;;;;;4891476;29;20049;-63
2022/01/30 01:32:20;;;;;;;28.25;3.60;;;4.20;99.90;;;;;;4903899;29;20527;-61
2022/01/30 01:34:48;;;;;;;21.75;3.13;;;4.10;99.90;;;;;;4893205;29;20053;-63
2022/01/30 01:37:16;;;;;;;23.63;5.35;;;4.20;99.90;;;;;;4892843;29;20401;-60
2022/01/30 01:39:45;;;;;;;20.00;2.45;;;4.10;99.90;;;;;;4892829;29;20052;-61
2022/01/30 01:42:15;;;;;;;21.05;3.85;;;4.00;99.90;;;;;;4901680;29;20048;-61
2022/01/30 01:44:48;;;;;;;26.75;3.72;;;4.00;99.90;;;;;;4910547;29;20054;-63
2022/01/30 01:47:19;;;;;;;20.17;4.43;;;3.90;99.90;;;;;;4910652;29;20480;-60
2022/01/30 01:49:50;;;;;;;32.47;4.45;;;3.90;99.90;;;;;;4910403;29;20059;-59
2022/01/30 01:52:23;;;;;;;21.70;3.47;;;3.80;99.90;;;;;;4910400;29;20044;-59
2022/01/30 01:54:59;;;;;;;23.75;2.70;;;4.00;99.90;;;;;;4911469;29;20048;-59
2022/01/30 01:57:29;;;;;;;13.10;2.47;;;3.80;99.90;;;;;;4910228;29;20048;-61
2022/01/30 02:00:33;;;;;;;18.55;2.33;;;3.80;99.90;;;;;;4873640;29;20540;-63
2022/01/30 02:03:01;;;;;;;15.07;2.67;;;3.70;99.90;;;;;;4891059;29;20052;-61
2022/01/30 02:05:33;;;;;;;20.93;3.83;;;3.80;99.90;;;;;;4910451;29;20060;-60
2022/01/30 02:08:28;;;;;;;19.65;2.70;;;3.70;99.90;;;;;;4911388;29;20056;-62
2022/01/30 02:11:09;;;;;;;19.80;3.15;;;3.70;99.90;;;;;;4914510;29;20044;-59
2022/01/30 02:27:46;;;;;;;19.70;2.70;;;3.70;99.90;;;;;;4895641;29;20052;-60
2022/01/30 02:30:19;;;;;;;20.05;3.05;;;3.60;99.90;;;;;;4900714;29;20040;-60
2022/01/30 02:32:49;;;;;;;16.85;2.78;;;3.60;99.90;;;;;;4912566;29;20040;-59
2022/01/30 02:35:17;;;;;;;30.25;3.05;;;3.50;99.90;;;;;;4898772;29;20416;-60
2022/01/30 02:37:47;;;;;;;22.50;3.35;;;3.50;99.90;;;;;;4898846;29;20059;-61
2022/01/30 02:40:15;;;;;;;27.67;3.20;;;3.50;99.90;;;;;;4910670;29;20051;-64
2022/01/30 02:42:48;;;;;;;23.85;3.50;;;3.60;99.90;;;;;;4916507;29;20048;-60
2022/01/30 02:45:18;;;;;;;15.15;2.50;;;3.50;99.90;;;;;;4882800;29;20056;-65
2022/01/30 02:48:11;;;;;;;16.30;2.15;;;3.60;99.90;;;;;;4915340;29;20047;-63
2022/01/30 02:53:09;;;;;;;26.98;2.75;;;3.60;99.90;;;;;;4916287;29;20056;-63
2022/01/30 02:55:39;;;;;;;21.55;2.78;;;3.60;99.90;;;;;;4916400;29;20048;-65
2022/01/30 02:58:07;;;;;;;23.77;2.53;;;3.60;99.90;;;;;;4915662;29;20059;-65
2022/01/30 03:00:35;;;;;;;19.55;2.40;;;3.60;99.90;;;;;;4915942;29;20048;-64
2022/01/30 03:03:03;;;;;;;27.80;2.42;;;3.60;99.90;;;;;;4917430;29;20044;-63
2022/01/30 03:05:31;;;;;;;21.00;2.00;;;3.60;99.90;;;;;;4915855;29;20048;-66
2022/01/30 03:07:59;;;;;;;13.90;2.72;;;3.70;99.90;;;;;;4915797;29;20052;-66
2022/01/30 03:10:27;;;;;;;17.85;2.00;;;3.60;99.90;;;;;;4916170;29;20040;-62
2022/01/30 03:12:55;;;;;;;14.88;2.03;;;3.70;99.90;;;;;;4915777;29;20052;-64
2022/01/30 03:15:23;;;;;;;13.23;2.40;;;3.60;99.90;;;;;;4915952;29;20421;-63
2022/01/30 03:17:51;;;;;;;16.80;2.03;;;3.70;99.90;;;;;;4900137;29;20040;-65
2022/01/30 03:20:21;;;;;;;12.13;2.22;;;3.70;99.90;;;;;;4914977;29;20055;-65
2022/01/30 03:22:49;;;;;;;;;;;3.70;99.90;;;;;;4917473;29;20505;-66
2022/01/30 03:25:17;;;;;;;26.77;2.67;;;3.70;99.90;;;;;;4916864;29;19923;-64
2022/01/30 03:28:07;;;;;;;17.45;2.08;;;3.70;99.90;;;;;;4915175;29;20045;-63
2022/01/30 03:30:39;;;;;;;16.20;2.47;;;3.70;99.90;;;;;;4915769;29;20048;-65
2022/01/30 03:33:27;;;;;;;23.08;2.53;;;3.70;99.90;;;;;;4915713;29;20047;-64
2022/01/30 03:35:55;;;;;;;16.63;2.55;;;3.70;99.90;;;;;;4915374;29;20044;-63
2022/01/30 03:38:24;;;;;;;12.38;2.28;;;3.70;99.90;;;;;;4915039;29;20044;-66
2022/01/30 03:40:53;;;;;;;17.33;1.93;;;3.60;99.90;;;;;;4915397;29;20499;-65
2022/01/30 03:43:22;;;;;;;15.02;2.22;;;3.60;99.90;;;;;;4915498;29;20801;-66
2022/01/30 03:45:51;;;;;;;10.13;1.80;;;3.50;99.90;;;;;;4915373;29;20377;-64
2022/01/30 03:48:19;;;;;;;17.90;2.60;;;3.50;99.90;;;;;;4897590;29;20052;-63
2022/01/30 03:51:21;;;;;;;14.20;2.88;;;3.40;99.90;;;;;;4893627;29;20060;-66
2022/01/30 03:53:49;;;;;;;10.15;1.63;;;3.30;99.90;;;;;;4896372;29;20045;-63
2022/01/30 03:56:17;;;;;;;18.85;2.83;;;3.20;99.90;;;;;;4899520;29;20059;-62
2022/01/30 03:58:45;;;;;;;13.35;1.83;;;3.20;99.90;;;;;;4915151;29;20048;-60
2022/01/30 04:01:16;;;;;;;20.20;2.70;;;3.10;99.90;;;;;;4915107;29;20059;-61
2022/01/30 04:03:44;;;;;;;18.35;1.77;;;3.10;99.90;;;;;;4914983;29;20048;-62
2022/01/30 04:06:13;;;;;;;18.80;2.40;;;3.00;99.90;;;;;;4914812;29;20051;-62
2022/01/30 04:08:43;;;;;;;12.18;2.20;;;3.00;99.90;;;;;;4915142;29;20076;-63
2022/01/30 04:11:19;;;;;;;16.77;2.13;;;3.00;99.90;;;;;;4915043;29;20048;-61
2022/01/30 04:13:58;;;;;;;33.45;2.88;;;2.90;99.90;;;;;;4914813;29;20471;-64
2022/01/30 04:16:50;;;;;;;15.98;2.22;;;2.90;99.90;;;;;;4914049;29;20052;-62
2022/01/30 04:19:37;;;;;;;19.33;2.08;;;2.90;99.90;;;;;;4915665;29;20488;-62
2022/01/30 04:22:11;;;;;;;18.95;1.77;;;2.90;99.90;;;;;;4914792;29;20059;-63
2022/01/30 04:25:00;;;;;;;25.60;2.70;;;2.80;99.90;;;;;;4915255;29;20068;-60
2022/01/30 04:27:55;;;;;;;18.42;2.17;;;2.80;99.90;;;;;;4907417;29;20052;-66
2022/01/30 04:30:44;;;;;;;23.65;2.97;;;2.70;99.90;;;;;;4904474;29;20376;-63
2022/01/30 04:33:30;;;;;;;16.52;1.70;;;2.70;99.90;;;;;;4915618;29;20047;-63
2022/01/30 04:36:30;;;;;;;10.82;1.73;;;2.60;99.90;;;;;;4902199;29;20048;-60
2022/01/30 04:39:14;;;;;;;18.20;2.53;;;2.60;99.90;;;;;;4914375;29;20642;-61
2022/01/30 05:00:28;;;;;;;21.65;2.00;;;2.10;99.90;;;;;;4908372;29;20063;-60
2022/01/30 05:06:17;;;;;;;17.08;2.10;;;1.90;99.90;;;;;;4915106;29;20052;-60
2022/01/30 05:09:04;;;;;;;13.48;2.00;;;1.90;99.90;;;;;;4915432;29;20055;-63
2022/01/30 05:11:58;;;;;;;24.40;2.58;;;1.80;99.90;;;;;;4914154;29;20631;-65
2022/01/30 05:14:42;;;;;;;19.75;2.55;;;1.80;99.90;;;;;;4915111;29;20416;-64
2022/01/30 05:17:30;;;;;;;14.48;1.92;;;1.70;99.90;;;;;;4914182;29;20055;-65
2022/01/30 05:20:21;;;;;;;16.95;2.30;;;1.60;99.90;;;;;;4914909;29;20490;-65
2022/01/30 05:22:53;;;;;;;12.63;2.60;;;1.60;99.90;;;;;;4913950;29;20036;-64
2022/01/30 05:25:50;;;;;;;12.05;2.00;;;1.50;99.90;;;;;;4913773;29;20082;-64
2022/01/30 05:28:22;;;;;;;14.35;2.22;;;1.50;99.90;;;;;;4914959;29;20041;-65
2022/01/30 05:31:22;;;;;;;24.92;2.38;;;1.40;99.90;;;;;;4908679;29;20385;-64
2022/01/30 05:34:10;;;;;;;12.77;2.38;;;1.40;99.90;;;;;;4915028;29;20040;-65
2022/01/30 05:37:19;;;;;;;9.45;1.60;;;1.30;99.90;;;;;;4893564;29;20055;-66
2022/01/30 05:40:07;;;;;;;10.65;1.88;;;1.30;99.90;;;;;;4893846;29;20051;-66
2022/01/30 05:43:08;;;;;;;19.00;2.15;;;1.30;99.90;;;;;;4876438;29;20056;-62
2022/01/30 05:45:43;;;;;;;12.40;2.20;;;1.20;99.90;;;;;;4918534;29;20048;-62
2022/01/30 05:48:38;;;;;;;14.70;3.90;;;1.20;99.90;;;;;;4899966;29;20056;-60
2022/01/30 05:51:24;;;;;;;20.02;2.65;;;1.20;99.90;;;;;;4896570;29;20048;-64
2022/01/30 05:53:55;;;;;;;23.70;2.70;;;1.20;99.90;;;;;;4904756;29;20071;-59
2022/01/30 05:56:30;;;;;;;22.38;3.28;;;1.20;99.90;;;;;;4914198;29;20052;-59
2022/01/30 05:59:06;;;;;;;18.40;3.10;;;1.10;99.90;;;;;;4914074;29;20056;-61
2022/01/30 06:01:34;;;;;;;13.93;2.22;;;1.10;99.90;;;;;;4913557;29;20055;-65
2022/01/30 06:04:16;;;;;;;16.60;3.15;;;1.10;99.90;;;;;;4906942;29;20052;-66
2022/01/30 06:06:50;;;;;;;16.73;2.05;;;1.10;99.90;;;;;;4910845;29;20052;-63
2022/01/30 06:09:19;;;;;;;13.90;2.03;;;1.10;99.90;;;;;;4913254;29;20052;-65
2022/01/30 06:11:53;;;;;;;16.98;2.80;;;1.00;99.90;;;;;;4913589;29;20059;-63
2022/01/30 06:14:24;;;;;;;8.98;1.80;;;1.00;99.90;;;;;;4898239;29;20048;-64
2022/01/30 06:17:06;;;;;;;10.35;2.28;;;0.90;99.90;;;;;;4913840;29;20056;-65
2022/01/30 06:19:58;;;;;;;25.27;2.72;;;0.90;99.90;;;;;;4896058;29;20056;-64
2022/01/30 06:23:01;;;;;;;15.52;2.40;;;0.90;99.90;;;;;;4893123;29;20103;-62
2022/01/30 06:25:48;;;;;;;12.38;2.30;;;0.90;99.90;;;;;;4894701;29;20452;-64
2022/01/30 06:28:35;;;;;;;10.25;2.53;;;0.80;99.90;;;;;;4907472;29;20539;-65
2022/01/30 06:31:31;;;;;;;16.85;2.42;;;0.70;99.90;;;;;;4911704;29;20056;-62
2022/01/30 06:33:59;;;;;;;19.10;2.72;;;0.70;99.90;;;;;;4909383;29;20044;-64
2022/01/30 06:36:48;;;;;;;12.75;2.95;;;0.70;99.90;;;;;;4907576;29;20064;-60
2022/01/30 06:39:41;;;;;;;9.45;2.80;;;0.70;99.90;;;;;;4891574;29;20059;-61
2022/01/30 06:42:40;;;;;;;15.35;2.58;;;0.80;99.90;;;;;;4909356;29;20063;-60
2022/01/30 06:45:27;;;;;;;14.30;2.88;;;0.80;99.90;;;;;;4910883;29;20055;-61
2022/01/30 06:48:26;;;;;;;;;;;0.80;99.90;;;;;;4889541;29;20437;-60
2022/01/30 06:51:13;;;;;;;16.33;2.47;;;0.90;99.90;;;;;;4895946;29;19930;-61
2022/01/30 06:54:13;;;;;;;11.02;2.25;;;0.90;99.90;;;;;;4877959;29;20064;-60
2022/01/30 06:57:17;;;;;;;22.25;2.55;;;0.80;99.90;;;;;;4892590;29;20048;-60
2022/01/30 07:00:06;;;;;;;16.35;2.03;;;0.80;99.90;;;;;;4894857;29;20072;-59
2022/01/30 07:02:52;;;;;;;14.35;2.25;;;0.80;99.90;;;;;;4891993;29;20041;-59
2022/01/30 07:05:59;;;;;;;9.27;2.28;;;0.80;99.90;;;;;;4890207;29;20048;-62
2022/01/30 07:08:33;;;;;;;15.93;2.42;;;0.70;99.90;;;;;;4876555;29;20044;-60
2022/01/30 07:11:01;;;;;;;8.55;1.80;;;0.70;99.90;;;;;;4894073;29;20060;-60
2022/01/30 07:13:29;;;;;;;5.90;1.73;;;0.60;99.90;;;;;;4894771;29;20397;-61
2022/01/30 07:15:57;;;;;;;17.73;2.42;;;0.60;99.90;;;;;;4895243;29;20044;-58
2022/01/30 07:18:25;;;;;;;20.67;3.40;;;0.50;99.90;;;;;;4900564;29;20044;-58
2022/01/30 07:20:54;;;;;;;15.20;2.60;;;0.50;99.90;;;;;;4893789;29;20059;-62
2022/01/30 07:23:22;;;;;;;21.27;3.10;;;0.40;99.90;;;;;;4894718;29;20063;-60
2022/01/30 07:25:53;;;;;;;15.77;3.30;;;0.40;99.90;;;;;;4892925;29;20048;-59
2022/01/30 07:28:21;;;;;;;17.42;3.45;;;0.40;99.90;;;;;;4896013;29;20264;-59
2022/01/30 07:30:49;;;;;;;19.63;3.28;;;0.30;99.90;;;;;;4892608;29;20049;-60
2022/01/30 07:33:16;;;;;;;15.10;3.22;;;0.30;99.90;;;;;;4894698;29;20601;-59
2022/01/30 07:35:45;;;;;;;17.52;2.42;;;0.30;99.90;;;;;;4902172;29;20044;-59
2022/01/30 07:38:13;;;;;;;16.15;3.30;;;0.30;99.90;;;;;;4894849;29;20048;-59
2022/01/30 07:40:42;;;;;;;11.07;3.05;;;0.30;99.90;;;;;;4894815;29;20505;-58
2022/01/30 07:43:10;;;;;;;21.40;2.67;;;0.30;99.90;;;;;;4894623;29;20052;-59
2022/01/30 07:45:47;;;;;;;10.30;2.47;;;0.30;99.90;;;;;;4900906;29;20052;-60
2022/01/30 07:48:15;;;;;;;11.65;1.83;;;0.30;99.90;;;;;;4904162;29;20044;-61
2022/01/30 07:50:43;;;;;;;12.45;3.20;;;0.20;99.90;;;;;;4894685;29;20048;-60
2022/01/30 07:53:11;;;;;;;19.52;2.88;;;0.20;99.90;;;;;;4894525;29;20501;-60
2022/01/30 07:55:39;;;;;;;10.68;2.88;;;0.10;99.90;;;;;;4900442;29;20051;-62
2022/01/30 07:58:07;;;;;;;17.77;2.40;;;0.10;99.90;;;;;;4911670;29;20044;-59
2022/01/30 08:00:34;;;;;;;13.18;2.67;;;0.00;99.90;;;;;;4911490;29;20052;-59
2022/01/30 08:03:03;;;;;;;10.75;2.50;;;0.00;99.90;;;;;;4908470;29;20056;-58
2022/01/30 08:05:31;;;;;;;12.67;2.87;;;-0.10;99.90;;;;;;4907867;29;20574;-59
2022/01/30 08:07:59;;;;;;;17.00;3.55;;;-0.10;99.90;;;;;;4911907;29;20298;-59
2022/01/30 08:10:27;;;;;;;17.38;3.67;;;-0.10;99.90;;;;;;4912841;29;20056;-59
2022/01/30 08:12:55;;;;;;;21.83;3.80;;;-0.10;99.90;;;;;;4912837;29;20052;-61
2022/01/30 08:15:23;;;;;;;14.02;3.05;;;-0.20;99.90;;;;;;4912360;29;20047;-60
2022/01/30 08:17:51;;;;;;;21.33;4.65;;;-0.10;99.90;;;;;;4912674;29;20477;-60
2022/01/30 08:20:21;;;;;;;19.58;3.10;;;-0.10;99.90;;;;;;4897713;29;20055;-60
2022/01/30 08:22:51;;;;;;;16.58;3.10;;;-0.10;99.90;;;;;;4893613;29;20059;-59
2022/01/30 08:25:21;;;;;;;17.77;3.15;;;-0.10;99.90;;;;;;4896449;29;20396;-63
2022/01/30 08:27:52;;;;;;;;;;;-0.10;99.90;;;;;;4907239;29;20067;-60
2022/01/30 08:30:20;;;;;;;16.48;2.90;;;-0.10;99.90;;;;;;4892627;29;19924;-61
2022/01/30 08:32:50;;;;;;;19.73;2.97;;;-0.10;99.90;;;;;;4893439;29;20040;-62
2022/01/30 08:35:19;;;;;;;11.70;2.90;;;-0.10;99.90;;;;;;4896579;29;20053;-64
2022/01/30 08:37:47;;;;;;;21.05;3.72;;;-0.10;99.90;;;;;;4912381;29;20055;-64
2022/01/30 08:40:18;;;;;;;17.50;3.53;;;-0.10;99.90;;;;;;4912496;29;20591;-60
2022/01/30 08:42:47;;;;;;;16.75;3.50;;;0.00;99.90;;;;;;4911117;29;20056;-63
2022/01/30 08:45:17;;;;;;;22.50;5.28;;;0.00;99.90;;;;;;4912106;29;20044;-60
2022/01/30 08:47:47;;;;;;;20.63;4.82;;;0.10;99.90;;;;;;4912391;29;20702;-64
2022/01/30 08:50:17;;;;;;;15.90;4.32;;;0.20;99.90;;;;;;4907397;29;20484;-63
2022/01/30 08:52:48;;;;;;;22.80;5.07;;;0.20;99.90;;;;;;4893161;29;20510;-63
2022/01/30 08:55:17;;;;;;;19.80;4.18;;;0.30;99.90;;;;;;4894722;29;20057;-65
2022/01/30 08:57:45;;;;;;;17.20;5.07;;;0.30;99.90;;;;;;4906953;29;20052;-61
2022/01/30 09:00:16;;;;;;;19.35;4.70;;;0.40;99.90;;;;;;4893606;29;20520;-65
2022/01/30 09:02:45;;;;;;;16.00;4.53;;;0.40;99.90;;;;;;4893281;29;20048;-62
2022/01/30 09:05:13;;;;;;;16.27;4.53;;;0.50;99.90;;;;;;4893223;29;20053;-66
2022/01/30 09:07:41;;;;;;;26.00;5.53;;;0.50;99.90;;;;;;4911293;29;20480;-65
2022/01/30 09:10:11;;;;;;;14.90;4.60;;;0.60;99.90;;;;;;4911219;29;20059;-67
2022/01/30 09:12:40;;;;;;;27.52;5.60;;;0.70;99.90;;;;;;4912058;29;20048;-66
2022/01/30 09:15:15;;;;;;;19.50;4.50;;;0.80;99.90;;;;;;4912333;29;20051;-64
2022/01/30 09:17:44;;;;;;;27.48;5.10;;;1.00;99.90;;;;;;4893060;29;20053;-59
2022/01/30 09:20:12;;;;;;;29.40;5.47;;;1.10;99.90;;;;;;4897427;29;20055;-59
2022/01/30 09:22:42;;;;;;;23.55;7.13;;;1.30;99.90;;;;;;4896982;29;20056;-59
2022/01/30 09:25:14;;;;;;;21.13;4.90;;;1.50;99.90;;;;;;4910472;29;20044;-60
2022/01/30 09:27:42;;;;;;;27.45;6.65;;;1.60;99.90;;;;;;4910897;29;20048;-65
2022/01/30 09:30:11;;;;;;;22.23;5.22;;;1.80;99.90;;;;;;4896008;29;20481;-59
2022/01/30 09:32:40;;;;;;;19.17;4.68;;;2.00;99.90;;;;;;4896792;29;20052;-63
2022/01/30 09:35:14;;;;;;;27.05;5.88;;;2.20;99.90;;;;;;4901040;29;20048;-60
2022/01/30 09:37:43;;;;;;;20.45;5.57;;;2.30;99.90;;;;;;4896714;29;20057;-60
2022/01/30 09:40:17;;;;;;;18.50;5.32;;;2.40;99.90;;;;;;4896753;29;20053;-61
2022/01/30 09:42:46;;;;;;;20.70;5.25;;;2.60;99.90;;;;;;4896599;29;20064;-60
2022/01/30 09:45:20;;;;;;;13.98;4.63;;;2.70;99.90;;;;;;4909648;29;20487;-60
2022/01/30 09:47:50;;;;;;;16.20;4.35;;;2.80;99.90;;;;;;4910025;29;20515;-60
2022/01/30 09:50:21;;;;;;;17.55;4.55;;;2.90;99.90;;;;;;4896949;29;20481;-59
2022/01/30 09:52:50;;;;;;;18.05;4.88;;;2.90;99.90;;;;;;4913729;29;20047;-61
2022/01/30 09:55:18;;;;;;;23.85;4.65;;;3.00;99.90;;;;;;4914998;29;20067;-62
2022/01/30 09:57:48;;;;;;;24.42;4.80;;;3.10;99.90;;;;;;4915193;29;20056;-61
2022/01/30 10:00:17;;;;;;;13.25;5.03;;;3.10;99.90;;;;;;4915178;29;20052;-61
2022/01/30 10:02:45;;;;;;;23.48;4.90;;;3.20;99.90;;;;;;4914418;29;20059;-60
2022/01/30 10:05:15;;;;;;;22.65;5.25;;;3.30;99.90;;;;;;4914160;29;20048;-64
2022/01/30 10:07:46;;;;;;;18.98;5.35;;;3.30;99.90;;;;;;4910410;29;20048;-64
2022/01/30 10:10:17;;;;;;;22.65;5.80;;;3.50;99.90;;;;;;4905989;29;20052;-58
2022/01/30 10:13:03;;;;;;;16.50;4.70;;;3.60;99.90;;;;;;4908477;29;20433;-60
2022/01/30 10:15:57;;;;;;;18.00;5.05;;;3.70;99.90;;;;;;4896069;29;20378;-61
2022/01/30 10:18:31;;;;;;;27.77;5.78;;;3.80;99.90;;;;;;4895959;29;20060;-62
2022/01/30 10:21:02;;;;;;;20.63;4.63;;;4.00;99.90;;;;;;4910441;29;20048;-62
2022/01/30 10:23:37;;;;;;;31.10;4.03;;;4.20;99.90;;;;;;4902344;29;20049;-60
2022/01/30 10:26:09;;;;;;;23.13;4.20;;;4.30;99.90;;;;;;4896286;29;20559;-62
2022/01/30 10:28:40;;;;;;;20.33;3.97;;;4.60;99.90;;;;;;4914344;29;20048;-60
2022/01/30 10:31:12;;;;;;;20.73;3.15;;;4.70;99.90;;;;;;4914276;29;20052;-62
2022/01/30 10:33:45;;;;;;;13.32;2.65;;;4.90;99.90;;;;;;4913108;29;20052;-59
2022/01/30 10:36:24;;;;;;;23.17;2.70;;;5.10;99.90;;;;;;4901568;29;20049;-64
2022/01/30 10:39:16;;;;;;;18.45;3.20;;;5.20;99.90;;;;;;4895639;29;20049;-62
2022/01/30 10:41:54;;;;;;;17.35;2.63;;;5.40;99.90;;;;;;4895767;29;20524;-63
2022/01/30 10:44:22;;;;;;;27.80;7.07;;;5.50;99.90;;;;;;4913883;29;20051;-64
2022/01/30 10:46:54;;;;;;;26.52;7.78;;;5.50;99.90;;;;;;4914567;29;20056;-63
2022/01/30 10:49:23;;;;;;;28.50;8.60;;;5.60;99.90;;;;;;4897183;29;20045;-63
2022/01/30 10:51:55;;;;;;;13.52;5.13;;;5.70;99.90;;;;;;4895748;29;20060;-63
2022/01/30 10:54:26;;;;;;;;;;;5.80;99.90;;;;;;4894916;29;20497;-66
2022/01/30 10:57:04;;;;;;;19.95;4.72;;;5.80;99.90;;;;;;4908738;29;20417;-65
2022/01/30 10:59:34;;;;;;;17.65;5.22;;;5.90;99.90;;;;;;4913639;29;20507;-64
2022/01/30 11:02:15;;;;;;;18.33;3.40;;;6.00;99.90;;;;;;4913663;29;20044;-66
2022/01/30 11:04:45;;;;;;;16.55;3.25;;;6.00;99.90;;;;;;4895286;29;20056;-60
2022/01/30 11:07:16;;;;;;;20.13;3.85;;;6.10;99.90;;;;;;4897278;29;20049;-66
2022/01/30 11:10:05;;;;;;;15.38;2.67;;;6.20;99.90;;;;;;4914135;29;20067;-65
2022/01/30 11:18:00;;;;;;;24.48;5.40;;;6.40;99.90;;;;;;4913818;29;20048;-64
2022/01/30 11:20:31;;;;;;;24.20;2.88;;;6.40;99.90;;;;;;4912425;29;20532;-64
2022/01/30 11:23:04;;;;;;;24.30;5.60;;;6.40;99.90;;;;;;4905650;29;20053;-65
2022/01/30 11:25:35;;;;;;;18.48;2.55;;;6.40;99.90;;;;;;4905691;29;20479;-66
2022/01/30 11:28:05;;;;;;;24.10;2.60;;;6.40;99.90;;;;;;4906801;29;20063;-65
2022/01/30 11:30:52;;;;;;;13.93;2.80;;;6.40;99.90;;;;;;4894035;29;20477;-65
2022/01/30 11:33:21;;;;;;;15.98;3.65;;;6.60;99.90;;;;;;4910256;29;20052;-64
2022/01/30 11:35:50;;;;;;;23.38;3.60;;;6.70;99.90;;;;;;4905840;29;20527;-66
2022/01/30 11:38:18;;;;;;;11.45;2.70;;;6.80;99.90;;;;;;4894528;29;20056;-66
2022/01/30 11:41:15;;;;;;;16.33;3.88;;;7.10;99.90;;;;;;4905931;29;20052;-63
2022/01/30 11:44:17;;;;;;;14.80;2.40;;;7.40;99.90;;;;;;4900184;29;20485;-65
2022/01/30 11:47:00;;;;;;;24.70;2.70;;;7.60;99.90;;;;;;4894552;29;20056;-64
2022/01/30 11:49:43;;;;;;;16.13;2.45;;;7.90;99.90;;;;;;4896419;29;20064;-62
2022/01/30 11:52:13;;;;;;;13.85;3.40;;;8.20;99.90;;;;;;4897338;29;20048;-62
2022/01/30 11:54:47;;;;;;;19.25;2.90;;;8.50;99.90;;;;;;4893250;29;20135;-59
2022/01/30 11:57:22;;;;;;;14.13;3.17;;;8.70;99.90;;;;;;4894711;29;20059;-62
2022/01/30 11:59:54;;;;;;;14.25;2.38;;;8.90;99.90;;;;;;4912188;29;20048;-63
2022/01/30 12:02:27;;;;;;;15.32;2.58;;;9.10;99.90;;;;;;4911998;29;20055;-62
2022/01/30 12:05:04;;;;;;;12.90;2.53;;;9.20;99.90;;;;;;4912603;29;20064;-62
2022/01/30 12:07:45;;;;;;;8.82;2.08;;;9.20;99.90;;;;;;4910294;29;20514;-60
2022/01/30 12:10:16;;;;;;;13.07;1.92;;;9.20;99.90;;;;;;4900557;29;20055;-61
2022/01/30 12:12:52;;;;;;;13.50;1.80;;;9.20;99.90;;;;;;4901092;29;20667;-58
2022/01/30 12:15:47;;;;;;;16.05;2.22;;;9.40;99.90;;;;;;4912672;29;20044;-61
2022/01/30 12:18:37;;;;;;;16.08;2.60;;;9.70;99.90;;;;;;4895903;29;20196;-59
2022/01/30 12:21:09;;;;;;;12.43;2.33;;;9.90;99.90;;;;;;4912948;29;20056;-59
2022/01/30 12:23:39;;;;;;;10.43;2.30;;;10.20;99.90;;;;;;4912611;29;20051;-59
2022/01/30 12:26:09;;;;;;;5.60;1.77;;;10.50;99.90;;;;;;4912425;29;20052;-63
2022/01/30 12:28:45;;;;;;;25.55;3.78;;;10.70;99.10;;;;;;4900265;29;20413;-63
2022/01/30 12:31:40;;;;;;;14.35;2.05;;;10.90;97.40;;;;;;4894154;29;20074;-63
2022/01/30 12:34:15;;;;;;;18.23;2.55;;;10.80;95.50;;;;;;4893188;29;20381;-64
2022/01/30 12:36:52;;;;;;;12.32;2.30;;;10.60;95.50;;;;;;4894145;29;20481;-59
2022/01/30 12:39:22;;;;;;;14.68;2.25;;;10.60;97.10;;;;;;4893594;29;20045;-62
2022/01/30 12:41:51;;;;;;;10.93;1.70;;;10.70;97.20;;;;;;4893847;29;20048;-60
2022/01/30 12:44:28;;;;;;;6.40;1.80;;;10.90;95.90;;;;;;4906252;29;20082;-60
2022/01/30 12:46:56;;;;;;;8.40;1.35;;;10.90;93.90;;;;;;4912643;29;20480;-59
2022/01/30 12:49:29;;;;;;;9.10;1.90;;;10.70;91.70;;;;;;4911802;29;20048;-58
2022/01/30 12:52:04;;;;;;;15.13;1.88;;;10.40;91.80;;;;;;4911248;29;20060;-65
2022/01/30 12:54:39;;;;;;;12.98;2.33;;;10.00;93.00;;;;;;4911214;29;20052;-66
2022/01/30 12:57:09;;;;;;;20.25;3.08;;;9.80;95.00;;;;;;4908877;29;20887;-65
2022/01/30 12:59:37;;;;;;;;;;;9.70;95.50;;;;;;4893929;29;20053;-62
2022/01/30 13:02:07;;;;;;;13.77;2.75;;;9.60;94.80;;;;;;4897603;29;19930;-65
2022/01/30 13:04:36;;;;;;;11.10;1.95;;;9.50;94.80;;;;;;4904965;29;20052;-62
2022/01/30 13:07:05;;;;;;;18.40;2.53;;;9.30;94.70;;;;;;4912221;29;20044;-62
2022/01/30 13:09:32;;;;;;;10.25;1.60;;;9.10;94.80;;;;;;4911063;29;20048;-61
2022/01/30 13:12:13;;;;;;;12.65;1.90;;;8.80;96.00;;;;;;4910085;29;20644;-61
2022/01/30 13:14:43;;;;;;;11.85;1.90;;;8.80;97.10;;;;;;4903787;29;20052;-60
2022/01/30 13:17:11;;;;;;;14.60;3.10;;;8.70;97.30;;;;;;4912146;29;20512;-65
2022/01/30 13:19:44;;;;;;;18.48;2.05;;;8.50;97.50;;;;;;4912307;29;20480;-64
2022/01/30 13:22:34;;;;;;;3.17;1.08;;;8.40;98.20;;;;;;4911894;29;20052;-65
2022/01/30 13:25:08;;;;;;;17.00;2.08;;;8.60;99.90;;;;;;4911979;29;20051;-65
2022/01/30 13:27:37;;;;;;;13.90;1.77;;;8.80;99.90;;;;;;4905833;29;20055;-65
2022/01/30 13:30:07;;;;;;;11.63;2.47;;;9.00;98.40;;;;;;4893111;29;20052;-63
2022/01/30 13:32:39;;;;;;;8.75;1.80;;;9.20;99.70;;;;;;4905430;29;20056;-65
2022/01/30 13:35:17;;;;;;;12.38;1.80;;;9.40;99.00;;;;;;4912123;29;20047;-64
2022/01/30 13:37:46;;;;;;;14.55;2.22;;;9.50;97.00;;;;;;4910307;29;20047;-62
2022/01/30 13:40:26;;;;;;;16.95;2.15;;;9.40;96.80;;;;;;4912131;29;20048;-63
2022/01/30 13:42:59;;;;;;;13.07;2.47;;;9.30;97.00;;;;;;4909875;29;20048;-64
2022/01/30 13:48:04;;;;;;;10.10;1.55;;;8.90;97.50;;;;;;4905788;29;20063;-60
2022/01/30 13:50:40;;;;;;;11.85;1.70;;;8.70;98.00;;;;;;4904963;29;20041;-63
2022/01/30 13:53:19;;;;;;;15.00;1.63;;;8.60;98.10;;;;;;4902506;29;20053;-65
2022/01/30 13:56:00;;;;;;;11.75;2.63;;;8.50;98.40;;;;;;4892787;29;20055;-65
2022/01/30 13:58:50;;;;;;;9.10;1.33;;;8.40;98.10;;;;;;4892983;29;20052;-61
2022/01/30 14:01:19;;;;;;;12.35;1.83;;;8.20;98.60;;;;;;4893125;29;20052;-64
2022/01/30 14:03:49;;;;;;;13.17;2.13;;;8.10;98.80;;;;;;4898813;29;20057;-65
2022/01/30 14:06:23;;;;;;;10.18;1.90;;;8.10;99.30;;;;;;4896214;29;20310;-62
2022/01/30 14:08:52;;;;;;;11.45;2.03;;;8.10;99.80;;;;;;4896137;29;20053;-65
2022/01/30 14:11:33;;;;;;;10.85;1.70;;;8.10;99.70;;;;;;4903150;29;20063;-64
2022/01/30 14:14:10;;;;;;;6.75;1.45;;;8.10;98.90;;;;;;4904512;29;20036;-66
2022/01/30 14:16:41;;;;;;;9.35;2.15;;;8.00;99.00;;;;;;4904819;29;20048;-65
2022/01/30 14:19:25;;;;;;;9.88;1.52;;;8.00;99.30;;;;;;4911929;29;20040;-62
2022/01/30 14:22:10;;;;;;;11.35;1.63;;;7.90;99.40;;;;;;4912007;29;20051;-65
2022/01/30 14:24:50;;;;;;;8.77;1.73;;;7.80;99.90;;;;;;4911310;29;20051;-66
2022/01/30 14:27:19;;;;;;;10.57;2.10;;;7.80;99.90;;;;;;4911414;29;20052;-63
2022/01/30 14:29:55;;;;;;;12.13;1.95;;;7.70;99.90;;;;;;4911246;29;20048;-65